createdAt,value
2024-03-13T00:01:19.310Z,27.48
2024-03-13T00:03:23.047Z,27.42
2024-03-13T00:05:31.938Z,28.02
2024-03-13T00:07:34.870Z,28.35
2024-03-13T00:09:45.661Z,30.42
2024-03-13T00:11:50.063Z,27.38
2024-03-13T00:13:53.368Z,30.43
2024-03-13T00:15:57.215Z,27.15
2024-03-13T00:18:00.315Z,26.27
2024-03-13T00:20:05.238Z,28.50
2024-03-13T00:22:08.625Z,27.10
2024-03-13T00:24:11.568Z,28.27
2024-03-13T00:26:14.777Z,27.38
2024-03-13T00:28:19.404Z,28.75
2024-03-13T00:30:23.297Z,28.30
2024-03-13T00:32:26.706Z,28.25
2024-03-13T00:34:29.727Z,27.33
2024-03-13T00:36:32.755Z,27.42
2024-03-13T00:38:36.325Z,30.15
2024-03-13T00:40:40.588Z,31.23
2024-03-13T00:42:44.064Z,29.27
2024-03-13T00:44:48.393Z,32.10
2024-03-13T00:46:51.426Z,32.42
2024-03-13T00:48:56.134Z,31.85
2024-03-13T00:50:59.286Z,31.75
2024-03-13T00:53:02.677Z,29.00
2024-03-13T00:55:11.808Z,33.28
2024-03-13T00:57:16.457Z,30.70
2024-03-13T00:59:20.307Z,33.33
2024-03-13T01:01:24.786Z,29.85
2024-03-13T01:03:27.985Z,33.00
2024-03-13T01:05:32.105Z,30.90
2024-03-13T01:07:36.526Z,32.42
2024-03-13T01:09:40.111Z,30.00
2024-03-13T01:11:43.810Z,34.25
2024-03-13T01:13:46.895Z,33.47
2024-03-13T01:15:49.783Z,32.47
2024-03-13T01:17:54.771Z,30.67
2024-03-13T01:19:58.685Z,28.15
2024-03-13T01:22:11.894Z,33.65
2024-03-13T01:24:14.927Z,33.85
2024-03-13T01:26:17.738Z,33.17
2024-03-13T01:28:22.929Z,33.05
2024-03-13T01:30:25.921Z,32.78
2024-03-13T01:32:28.985Z,32.38
2024-03-13T01:34:34.198Z,33.60
2024-03-13T01:36:55.955Z,34.40
2024-03-13T01:38:58.849Z,32.75
2024-03-13T01:41:20.219Z,32.22
2024-03-13T01:43:41.853Z,33.92
2024-03-13T01:46:38.396Z,34.63
2024-03-13T01:49:00.119Z,32.15
2024-03-13T01:51:23.400Z,33.10
2024-03-13T01:53:46.871Z,33.53
2024-03-13T01:55:50.535Z,33.92
2024-03-13T01:58:00.689Z,33.33
2024-03-13T02:00:24.399Z,33.10
2024-03-13T02:02:28.240Z,32.08
2024-03-13T02:04:31.847Z,33.63
2024-03-13T02:06:37.178Z,33.03
2024-03-13T02:08:41.628Z,33.55
2024-03-13T02:10:44.757Z,33.83
2024-03-13T02:13:06.399Z,34.53
2024-03-13T02:15:09.984Z,34.22
2024-03-13T02:17:12.866Z,33.42
2024-03-13T02:19:16.424Z,33.97
2024-03-13T02:21:19.496Z,32.58
2024-03-13T02:23:23.282Z,33.42
2024-03-13T02:25:26.170Z,34.00
2024-03-13T02:27:29.054Z,34.20
2024-03-13T02:29:32.932Z,33.42
2024-03-13T02:31:36.234Z,35.10
2024-03-13T02:33:38.979Z,33.33
2024-03-13T02:35:44.566Z,33.97
2024-03-13T02:39:49.892Z,33.75
2024-03-13T02:41:52.895Z,34.05
2024-03-13T02:44:00.589Z,33.42
2024-03-13T02:46:04.106Z,34.00
2024-03-13T02:48:08.175Z,33.40
2024-03-13T02:50:13.331Z,34.50
2024-03-13T02:52:16.286Z,34.17
2024-03-13T02:54:19.164Z,34.42
2024-03-13T02:56:22.051Z,33.40
2024-03-13T02:58:25.113Z,32.80
2024-03-13T03:00:27.966Z,33.70
2024-03-13T03:02:30.905Z,33.67
2024-03-13T03:04:33.848Z,33.88
2024-03-13T03:06:36.639Z,33.58
2024-03-13T03:08:42.624Z,34.67
2024-03-13T03:10:45.394Z,32.40
2024-03-13T03:12:49.024Z,29.70
2024-03-13T03:14:51.832Z,29.02
2024-03-13T03:16:56.275Z,30.38
2024-03-13T03:18:59.092Z,30.23
2024-03-13T03:21:04.268Z,30.90
2024-03-13T03:23:07.535Z,32.60
2024-03-13T03:25:11.334Z,33.75
2024-03-13T03:27:14.374Z,34.30
2024-03-13T03:29:18.612Z,35.05
2024-03-13T03:31:21.367Z,31.95
2024-03-13T03:33:24.566Z,31.23
2024-03-13T03:35:29.060Z,33.50
2024-03-13T03:37:32.804Z,32.20
2024-03-13T03:39:35.687Z,31.90
2024-03-13T03:41:38.581Z,33.25
2024-03-13T03:43:41.275Z,33.80
2024-03-13T03:45:45.176Z,32.38
2024-03-13T03:47:54.439Z,33.63
2024-03-13T03:50:00.653Z,34.63
2024-03-13T03:52:04.482Z,35.70
2024-03-13T03:54:07.344Z,33.40
2024-03-13T03:56:10.366Z,35.03
2024-03-13T03:58:13.800Z,35.00
2024-03-13T04:00:18.078Z,37.13
2024-03-13T04:02:21.114Z,37.97
2024-03-13T04:04:25.515Z,33.53
2024-03-13T04:06:28.486Z,35.87
2024-03-13T04:08:31.383Z,36.90
2024-03-13T04:10:34.274Z,36.33
2024-03-13T04:12:37.271Z,35.75
2024-03-13T04:14:40.142Z,38.40
2024-03-13T04:16:45.169Z,36.47
2024-03-13T04:18:48.171Z,37.25
2024-03-13T04:20:52.134Z,36.58
2024-03-13T04:22:56.286Z,33.90
2024-03-13T04:24:59.098Z,34.30
2024-03-13T04:27:01.984Z,35.47
2024-03-13T04:29:06.126Z,37.92
2024-03-13T04:31:08.950Z,36.33
2024-03-13T04:33:11.845Z,34.00
2024-03-13T04:35:14.740Z,35.30
2024-03-13T04:37:17.495Z,40.17
2024-03-13T04:39:20.298Z,38.63
2024-03-13T04:41:24.197Z,33.92
2024-03-13T04:43:29.018Z,40.50
2024-03-13T04:45:31.812Z,43.05
2024-03-13T04:47:38.515Z,39.55
2024-03-13T04:49:44.935Z,36.03
2024-03-13T04:51:48.924Z,41.75
2024-03-13T04:53:51.755Z,41.70
2024-03-13T04:55:54.604Z,42.13
2024-03-13T04:57:58.472Z,42.13
2024-03-13T05:00:01.595Z,38.35
2024-03-13T05:02:04.880Z,40.20
2024-03-13T05:04:07.997Z,38.38
2024-03-13T05:06:10.804Z,40.72
2024-03-13T05:08:15.495Z,35.53
2024-03-13T05:10:19.072Z,37.97
2024-03-13T05:12:22.413Z,40.15
2024-03-13T05:14:25.295Z,40.78
2024-03-13T05:16:28.441Z,38.05
2024-03-13T05:18:32.007Z,41.47
2024-03-13T05:20:35.576Z,40.33
2024-03-13T05:22:38.478Z,37.25
2024-03-13T05:24:42.398Z,37.97
2024-03-13T05:26:45.555Z,39.03
2024-03-13T05:28:48.467Z,36.92
2024-03-13T05:30:51.348Z,37.03
2024-03-13T05:32:54.301Z,36.08
2024-03-13T05:34:57.341Z,37.42
2024-03-13T05:37:01.760Z,38.78
2024-03-13T05:39:06.598Z,39.58
2024-03-13T05:41:09.550Z,39.88
2024-03-13T05:43:12.704Z,34.20
2024-03-13T05:45:15.865Z,37.95
2024-03-13T05:47:18.827Z,38.38
2024-03-13T05:49:21.643Z,38.67
2024-03-13T05:51:24.684Z,40.90
2024-03-13T05:53:27.521Z,39.53
2024-03-13T05:55:30.401Z,37.60
2024-03-13T05:57:33.355Z,38.03
2024-03-13T05:59:36.478Z,39.05
2024-03-13T06:01:39.537Z,38.63
2024-03-13T06:03:42.425Z,34.67
2024-03-13T06:05:46.666Z,41.17
2024-03-13T06:07:49.449Z,36.65
2024-03-13T06:09:52.344Z,35.58
2024-03-13T06:11:55.125Z,39.33
2024-03-13T06:13:57.993Z,35.35
2024-03-13T06:16:00.898Z,36.55
2024-03-13T06:18:03.812Z,36.40
2024-03-13T06:20:15.007Z,37.50
2024-03-13T06:22:18.016Z,38.90
2024-03-13T06:24:32.150Z,38.22
2024-03-13T06:26:35.541Z,35.13
2024-03-13T06:28:57.176Z,34.53
2024-03-13T06:31:03.517Z,36.70
2024-03-13T06:33:06.435Z,33.60
2024-03-13T06:35:09.386Z,35.03
2024-03-13T06:37:12.648Z,34.45
2024-03-13T06:39:15.615Z,33.90
2024-03-13T06:41:18.494Z,37.70
2024-03-13T06:43:21.561Z,34.78
2024-03-13T06:45:28.410Z,32.85
2024-03-13T06:47:38.356Z,34.25
2024-03-13T06:49:41.220Z,34.38
2024-03-13T06:51:44.228Z,35.90
2024-03-13T06:53:47.101Z,38.22
2024-03-13T06:55:51.294Z,34.65
2024-03-13T06:57:54.222Z,34.40
2024-03-13T07:00:00.183Z,35.28
2024-03-13T07:02:03.395Z,34.45
2024-03-13T07:04:06.376Z,37.17
2024-03-13T07:06:12.815Z,37.40
2024-03-13T07:08:16.195Z,35.60
2024-03-13T07:10:19.025Z,37.10
2024-03-13T07:12:22.114Z,33.83
2024-03-13T07:14:25.571Z,35.22
2024-03-13T07:16:28.412Z,33.80
2024-03-13T07:18:32.584Z,32.25
2024-03-13T07:20:35.467Z,36.03
2024-03-13T07:22:40.312Z,33.17
2024-03-13T07:24:43.225Z,35.03
2024-03-13T07:26:46.716Z,35.30
2024-03-13T07:28:50.324Z,31.95
2024-03-13T07:30:53.237Z,36.00
2024-03-13T07:32:56.200Z,34.40
2024-03-13T07:34:59.845Z,35.33
2024-03-13T07:37:02.783Z,36.92
2024-03-13T07:39:06.330Z,34.83
2024-03-13T07:41:12.249Z,39.70
2024-03-13T07:43:15.110Z,38.50
2024-03-13T07:45:18.104Z,40.15
2024-03-13T07:47:20.941Z,39.75
2024-03-13T07:49:23.877Z,37.88
2024-03-13T07:51:26.867Z,35.25
2024-03-13T07:53:31.345Z,33.15
2024-03-13T07:55:34.495Z,33.47
2024-03-13T07:57:37.596Z,32.22
2024-03-13T07:59:42.256Z,30.80
2024-03-13T08:01:47.300Z,31.23
2024-03-13T08:03:50.171Z,24.48
2024-03-13T09:06:51.337Z,19.60
2024-03-13T09:08:54.167Z,22.42
2024-03-13T09:10:58.731Z,23.10
2024-03-13T09:13:04.154Z,22.73
2024-03-13T09:15:07.730Z,23.73
2024-03-13T09:17:10.992Z,25.60
2024-03-13T09:19:13.840Z,25.88
2024-03-13T09:21:18.265Z,23.48
2024-03-13T09:23:21.095Z,26.45
2024-03-13T09:25:24.091Z,20.30
2024-03-13T09:27:27.023Z,26.83
2024-03-13T09:29:30.954Z,22.00
2024-03-13T09:31:34.720Z,23.00
2024-03-13T09:33:37.671Z,24.88
2024-03-13T09:35:40.883Z,25.38
2024-03-13T09:37:43.820Z,19.85
2024-03-13T09:39:46.714Z,21.10
2024-03-13T09:41:49.509Z,23.42
2024-03-13T09:43:52.628Z,25.80
2024-03-13T09:45:55.488Z,24.42
2024-03-13T09:47:58.583Z,24.42
2024-03-13T09:50:06.936Z,25.15
2024-03-13T09:52:10.945Z,24.98
2024-03-13T09:54:14.296Z,25.63
2024-03-13T09:56:18.801Z,18.85
2024-03-13T09:58:22.122Z,13.15
2024-03-13T10:00:25.351Z,23.50
2024-03-13T10:02:28.856Z,23.65
2024-03-13T10:04:32.079Z,20.83
2024-03-13T10:06:34.804Z,20.10
2024-03-13T10:08:37.769Z,21.63
2024-03-13T10:10:42.602Z,21.92
2024-03-13T10:14:49.004Z,20.63
2024-03-13T10:16:57.371Z,24.42
2024-03-13T10:19:01.996Z,25.85
2024-03-13T10:21:06.770Z,24.50
2024-03-13T10:23:09.576Z,23.70
2024-03-13T10:25:12.846Z,26.92
2024-03-13T10:27:15.833Z,24.83
2024-03-13T10:29:19.079Z,21.67
2024-03-13T10:31:22.439Z,25.05
2024-03-13T10:33:25.506Z,23.92
2024-03-13T10:35:28.396Z,24.23
2024-03-13T10:37:31.716Z,25.63
2024-03-13T10:39:35.880Z,22.52
2024-03-13T10:41:38.766Z,20.85
2024-03-13T10:43:43.604Z,23.25
2024-03-13T10:45:49.333Z,24.83
2024-03-13T10:49:55.049Z,7.32
2024-03-13T10:51:59.307Z,18.33
2024-03-13T10:54:04.561Z,23.15
2024-03-13T10:56:13.175Z,19.70
2024-03-13T10:58:19.928Z,11.75
2024-03-13T11:00:23.083Z,21.02
2024-03-13T11:02:26.148Z,21.42
2024-03-13T11:04:28.972Z,22.70
2024-03-13T11:06:34.000Z,20.70
2024-03-13T11:08:36.962Z,13.80
2024-03-13T11:10:40.044Z,5.75
2024-03-13T11:12:43.545Z,18.60
2024-03-13T11:14:52.435Z,23.13
2024-03-13T11:16:56.825Z,22.98
2024-03-13T11:18:59.735Z,22.08
2024-03-13T11:21:03.117Z,23.17
2024-03-13T11:23:06.964Z,25.27
2024-03-13T11:25:13.764Z,23.00
2024-03-13T11:27:17.275Z,20.67
2024-03-13T11:29:21.647Z,21.95
2024-03-13T11:31:24.830Z,20.45
2024-03-13T11:33:27.707Z,20.52
2024-03-13T11:35:30.884Z,22.25
2024-03-13T11:37:34.530Z,20.60
2024-03-13T11:39:37.577Z,19.63
2024-03-13T11:41:40.533Z,21.67
2024-03-13T11:43:43.527Z,19.73
2024-03-13T11:45:46.629Z,18.08
2024-03-13T11:47:49.989Z,19.83
2024-03-13T11:49:58.706Z,18.88
2024-03-13T11:52:12.438Z,16.85
2024-03-13T11:54:15.304Z,18.55
2024-03-13T11:56:21.945Z,21.25
2024-03-13T11:58:27.239Z,22.92
2024-03-13T12:00:34.067Z,21.00
2024-03-13T12:02:40.155Z,20.83
2024-03-13T12:04:44.064Z,18.92
2024-03-13T12:06:48.587Z,12.85
2024-03-13T12:08:53.031Z,13.75
2024-03-13T12:10:55.985Z,17.95
2024-03-13T12:12:59.223Z,17.90
2024-03-13T12:15:02.317Z,18.75
2024-03-13T12:17:06.831Z,18.17
2024-03-13T12:19:11.509Z,19.23
2024-03-13T12:21:15.336Z,18.95
2024-03-13T12:23:19.578Z,16.27
2024-03-13T12:25:22.984Z,17.50
2024-03-13T12:27:26.573Z,18.13
2024-03-13T12:29:29.814Z,17.13
2024-03-13T12:31:32.914Z,17.23
2024-03-13T12:33:37.790Z,14.77
2024-03-13T12:35:40.681Z,17.23
2024-03-13T12:37:43.647Z,18.75
2024-03-13T12:39:47.788Z,17.23
2024-03-13T12:41:51.245Z,16.30
2024-03-13T12:43:54.278Z,15.15
2024-03-13T12:45:57.218Z,14.93
2024-03-13T12:48:00.877Z,17.45
2024-03-13T12:50:07.874Z,18.40
2024-03-13T12:52:12.407Z,17.10
2024-03-13T12:54:16.936Z,17.30
2024-03-13T12:56:20.257Z,15.98
2024-03-13T12:58:24.057Z,17.05
2024-03-13T13:00:27.530Z,18.35
2024-03-13T13:02:30.537Z,15.38
2024-03-13T13:04:33.410Z,17.58
2024-03-13T13:06:36.578Z,17.38
2024-03-13T13:08:40.135Z,15.65
2024-03-13T13:10:43.202Z,15.07
2024-03-13T13:12:46.380Z,16.90
2024-03-13T13:14:49.596Z,16.75
2024-03-13T13:16:52.998Z,16.05
2024-03-13T13:18:56.074Z,15.35
2024-03-13T13:21:00.050Z,17.77
2024-03-13T13:23:05.101Z,17.52
2024-03-13T13:25:08.537Z,19.20
2024-03-13T13:27:11.789Z,18.08
2024-03-13T13:29:14.769Z,17.50
2024-03-13T13:31:18.159Z,19.65
2024-03-13T13:33:21.048Z,17.55
2024-03-13T13:35:25.345Z,16.73
2024-03-13T13:37:28.895Z,17.50
2024-03-13T13:39:31.752Z,18.33
2024-03-13T13:41:35.859Z,19.77
2024-03-13T13:43:39.053Z,16.50
2024-03-13T13:45:42.404Z,20.27
2024-03-13T13:47:47.031Z,20.23
2024-03-13T13:49:50.487Z,18.75
2024-03-13T13:51:53.402Z,17.95
2024-03-13T13:53:56.329Z,20.27
2024-03-13T13:55:59.174Z,21.38
2024-03-13T13:58:05.346Z,18.95
2024-03-13T14:00:12.073Z,20.33
2024-03-13T14:02:19.629Z,20.20
2024-03-13T14:04:22.783Z,23.55
2024-03-13T14:06:26.742Z,20.80
2024-03-13T14:08:30.011Z,18.30
2024-03-13T14:10:32.961Z,17.85
2024-03-13T14:12:35.915Z,18.88
2024-03-13T14:14:40.105Z,21.23
2024-03-13T14:16:43.466Z,21.58
2024-03-13T14:18:47.133Z,17.52
2024-03-13T14:20:50.076Z,19.30
2024-03-13T14:22:55.785Z,19.52
2024-03-13T14:25:00.495Z,19.70
2024-03-13T14:27:04.206Z,20.08
2024-03-13T14:29:14.976Z,20.48
2024-03-13T14:31:18.307Z,17.88
2024-03-13T14:33:21.730Z,20.35
2024-03-13T14:35:24.589Z,20.75
2024-03-13T14:37:27.428Z,18.95
2024-03-13T14:39:33.000Z,20.73
2024-03-13T14:41:36.441Z,17.45
2024-03-13T14:43:39.881Z,17.50
2024-03-13T14:45:42.789Z,18.92
2024-03-13T14:47:47.666Z,19.95
2024-03-13T14:49:51.435Z,21.40
2024-03-13T14:51:55.089Z,20.67
2024-03-13T14:53:58.371Z,19.77
2024-03-13T14:56:01.387Z,20.65
2024-03-13T14:58:05.109Z,21.50
2024-03-13T15:00:12.028Z,21.73
2024-03-13T15:02:15.214Z,21.58
2024-03-13T15:04:18.355Z,20.98
2024-03-13T15:06:21.219Z,22.27
2024-03-13T15:08:24.426Z,23.77
2024-03-13T15:10:27.638Z,23.35
2024-03-13T15:12:31.010Z,22.60
2024-03-13T15:14:34.824Z,21.85
2024-03-13T15:16:38.095Z,21.17
2024-03-13T15:18:41.086Z,20.23
2024-03-13T15:20:47.196Z,19.30
2024-03-13T15:22:50.846Z,19.88
2024-03-13T15:24:54.214Z,19.17
2024-03-13T15:26:57.694Z,18.88
2024-03-13T15:29:00.684Z,19.35
2024-03-13T15:31:04.124Z,19.38
2024-03-13T15:33:07.330Z,18.58
2024-03-13T15:35:10.411Z,17.88
2024-03-13T15:37:13.324Z,18.52
2024-03-13T15:39:16.412Z,17.63
2024-03-13T15:41:20.322Z,17.10
2024-03-13T15:43:23.434Z,16.25
2024-03-13T15:45:26.473Z,14.38
2024-03-13T15:47:29.867Z,14.32
2024-03-13T15:49:33.224Z,13.75
2024-03-13T15:51:36.154Z,15.10
2024-03-13T15:53:44.493Z,15.02
2024-03-13T15:55:48.284Z,14.32
2024-03-13T15:57:51.370Z,15.10
2024-03-13T15:59:54.561Z,14.13
2024-03-13T16:01:57.826Z,14.50
2024-03-13T16:04:00.625Z,13.98
2024-03-13T16:06:03.620Z,12.88
2024-03-13T16:08:08.079Z,13.35
2024-03-13T16:10:10.993Z,13.60
2024-03-13T16:12:14.047Z,14.85
2024-03-13T16:14:18.686Z,14.80
2024-03-13T16:16:22.286Z,14.82
2024-03-13T16:18:25.425Z,15.95
2024-03-13T16:20:28.440Z,15.25
2024-03-13T16:22:31.400Z,15.70
2024-03-13T16:24:34.318Z,14.98
2024-03-13T16:26:38.827Z,15.93
2024-03-13T16:28:41.737Z,14.65
2024-03-13T16:30:45.264Z,16.05
2024-03-13T16:32:48.496Z,15.80
2024-03-13T16:34:51.605Z,17.23
2024-03-13T16:36:54.457Z,17.08
2024-03-13T16:39:02.439Z,16.38
2024-03-13T16:41:05.554Z,15.77
2024-03-13T16:43:08.518Z,18.08
2024-03-13T16:45:16.612Z,20.70
2024-03-13T16:47:21.018Z,20.20
2024-03-13T16:49:23.871Z,19.73
2024-03-13T16:51:27.632Z,20.02
2024-03-13T16:53:30.554Z,20.10
2024-03-13T16:55:33.783Z,21.50
2024-03-13T16:57:36.752Z,20.02
2024-03-13T16:59:39.652Z,19.90
2024-03-13T17:01:47.161Z,16.38
2024-03-13T17:03:50.443Z,18.20
2024-03-13T17:05:53.396Z,17.83
2024-03-13T17:07:56.925Z,18.92
2024-03-13T17:09:59.804Z,17.25
2024-03-13T17:12:02.702Z,19.13
2024-03-13T17:14:05.732Z,17.50
2024-03-13T17:16:11.137Z,17.67
2024-03-13T17:18:14.044Z,16.98
2024-03-13T17:20:18.350Z,17.52
2024-03-13T17:22:25.747Z,17.27
2024-03-13T17:24:29.639Z,16.38
2024-03-13T17:26:34.071Z,16.95
2024-03-13T17:28:36.918Z,17.88
2024-03-13T17:30:39.736Z,16.98
2024-03-13T17:32:43.183Z,18.33
2024-03-13T17:34:46.071Z,19.30
2024-03-13T17:36:49.078Z,20.75
2024-03-13T17:38:51.934Z,22.40
2024-03-13T17:40:55.057Z,22.70
2024-03-13T17:42:57.897Z,22.52
2024-03-13T17:45:00.942Z,24.02
2024-03-13T17:47:04.646Z,25.85
2024-03-13T17:49:07.670Z,25.60
2024-03-13T17:51:11.314Z,26.25
2024-03-13T17:53:16.474Z,25.23
2024-03-13T17:55:19.990Z,27.33
2024-03-13T17:57:22.939Z,25.23
2024-03-13T17:59:25.859Z,26.38
2024-03-13T18:01:28.857Z,27.33
2024-03-13T18:03:32.124Z,29.67
2024-03-13T18:05:35.407Z,23.25
2024-03-13T18:07:38.214Z,27.23
2024-03-13T18:09:44.332Z,29.25
2024-03-13T18:11:48.299Z,32.80
2024-03-13T18:13:51.351Z,36.65
2024-03-13T18:15:54.302Z,28.25
2024-03-13T18:17:57.202Z,25.05
2024-03-13T18:20:00.348Z,35.00
2024-03-13T18:22:03.325Z,29.95
2024-03-13T18:24:06.316Z,22.35
2024-03-13T18:26:12.450Z,25.60
2024-03-13T18:28:15.847Z,25.13
2024-03-13T18:30:18.725Z,24.80
2024-03-13T18:32:21.769Z,23.75
2024-03-13T18:34:26.388Z,25.75
2024-03-13T18:36:29.426Z,29.67
2024-03-13T18:38:32.321Z,30.08
2024-03-13T18:40:36.592Z,31.00
2024-03-13T18:42:39.589Z,29.77
2024-03-13T18:44:42.856Z,29.95
2024-03-13T18:46:45.737Z,27.52
2024-03-13T18:48:48.669Z,25.63
2024-03-13T18:50:51.769Z,25.42
2024-03-13T18:52:55.199Z,26.40
2024-03-13T18:55:03.578Z,27.42
2024-03-13T18:57:06.370Z,25.70
2024-03-13T18:59:11.014Z,28.90
2024-03-13T19:01:15.924Z,26.48
2024-03-13T19:03:20.973Z,27.33
2024-03-13T19:05:25.491Z,27.10
2024-03-13T19:07:29.050Z,26.30
2024-03-13T19:09:31.888Z,27.25
2024-03-13T19:11:35.065Z,27.50
2024-03-13T19:13:38.685Z,27.30
2024-03-13T19:15:41.528Z,29.20
2024-03-13T19:17:44.728Z,29.45
2024-03-13T19:19:47.631Z,26.67
2024-03-13T19:21:52.097Z,25.60
2024-03-13T19:23:55.064Z,24.00
2024-03-13T19:26:02.501Z,23.90
2024-03-13T19:28:05.821Z,22.30
2024-03-13T19:30:09.036Z,24.05
2024-03-13T19:32:12.406Z,23.08
2024-03-13T19:34:15.914Z,25.10
2024-03-13T19:36:19.054Z,23.52
2024-03-13T19:38:22.329Z,26.05
2024-03-13T19:40:25.175Z,28.25
2024-03-13T19:42:28.753Z,26.48
2024-03-13T19:44:31.746Z,26.27
2024-03-13T19:46:35.812Z,27.45
2024-03-13T19:48:39.594Z,27.53
2024-03-13T19:50:44.148Z,28.17
2024-03-13T19:52:47.029Z,29.77
2024-03-13T19:54:49.921Z,29.17
2024-03-13T19:56:52.912Z,29.27
2024-03-13T19:58:56.041Z,28.73
2024-03-13T20:00:59.585Z,26.58
2024-03-13T20:03:08.801Z,27.65
2024-03-13T20:05:15.398Z,28.10
2024-03-13T20:07:19.352Z,27.73
2024-03-13T20:09:22.969Z,30.65
2024-03-13T20:11:25.972Z,26.92
2024-03-13T20:13:28.906Z,26.90
2024-03-13T20:15:31.701Z,26.30
2024-03-13T20:17:34.797Z,25.52
2024-03-13T20:19:37.936Z,26.25
2024-03-13T20:21:40.943Z,26.83
2024-03-13T20:23:44.033Z,25.20
2024-03-13T20:25:47.257Z,26.55
2024-03-13T20:27:50.369Z,27.15
2024-03-13T20:29:53.383Z,26.05
2024-03-13T20:31:56.887Z,28.13
2024-03-13T20:34:02.058Z,28.63
2024-03-13T20:36:05.118Z,26.15
2024-03-13T20:38:08.092Z,26.60
2024-03-13T20:40:14.224Z,27.08
2024-03-13T20:42:17.507Z,26.52
2024-03-13T20:44:22.096Z,27.50
2024-03-13T20:46:24.947Z,30.10
2024-03-13T20:48:28.577Z,29.23
2024-03-13T20:50:31.605Z,28.05
2024-03-13T20:52:34.605Z,24.33
2024-03-13T20:54:38.629Z,23.25
2024-03-13T20:56:41.902Z,25.30
2024-03-13T20:58:48.226Z,24.85
2024-03-13T21:00:51.060Z,27.05
2024-03-13T21:02:56.711Z,25.92
2024-03-13T21:04:59.566Z,25.70
2024-03-13T21:07:02.456Z,25.77
2024-03-13T21:09:05.307Z,26.50
2024-03-13T21:11:09.087Z,25.85
2024-03-13T21:13:12.375Z,25.77
2024-03-13T21:15:15.296Z,25.58
2024-03-13T21:17:18.877Z,25.00
2024-03-13T21:19:22.094Z,28.30
2024-03-13T21:21:25.409Z,26.33
2024-03-13T21:23:28.458Z,26.50
2024-03-13T21:25:31.217Z,27.45
2024-03-13T21:27:34.195Z,24.58
2024-03-13T21:29:37.403Z,25.23
2024-03-13T21:31:40.986Z,26.65
2024-03-13T21:33:44.202Z,25.98
2024-03-13T21:35:47.285Z,26.30
2024-03-13T21:37:50.331Z,26.63
2024-03-13T21:39:53.279Z,24.88
2024-03-13T21:41:56.160Z,25.98
2024-03-13T21:43:59.115Z,27.27
2024-03-13T21:46:01.954Z,26.05
2024-03-13T21:48:05.422Z,27.00
2024-03-13T21:50:09.815Z,24.98
2024-03-13T21:52:12.627Z,27.45
2024-03-13T21:54:15.606Z,29.77
2024-03-13T21:56:18.506Z,29.10
2024-03-13T21:58:21.621Z,28.10
2024-03-13T22:00:24.580Z,26.13
2024-03-13T22:02:27.657Z,26.13
2024-03-13T22:04:30.607Z,26.08
2024-03-13T22:06:34.715Z,25.80
2024-03-13T22:08:37.596Z,27.52
2024-03-13T22:10:42.288Z,27.40
2024-03-13T22:12:48.403Z,27.85
2024-03-13T22:14:51.395Z,27.70
2024-03-13T22:16:54.596Z,26.95
2024-03-13T22:18:58.960Z,26.83
2024-03-13T22:21:02.808Z,28.02
2024-03-13T22:23:07.612Z,23.60
2024-03-13T22:25:11.608Z,25.30
2024-03-13T22:27:14.529Z,25.15
2024-03-13T22:29:17.910Z,27.70
2024-03-13T22:31:20.840Z,27.05
2024-03-13T22:33:23.870Z,24.52
2024-03-13T22:35:26.827Z,22.80
2024-03-13T22:37:30.009Z,25.17
2024-03-13T22:39:32.827Z,26.50
2024-03-13T22:41:35.798Z,26.42
2024-03-13T22:43:38.669Z,27.77
2024-03-13T22:45:41.618Z,26.35
2024-03-13T22:47:47.734Z,25.83
2024-03-13T22:49:52.716Z,26.42
2024-03-13T22:51:55.487Z,29.37
2024-03-13T22:53:58.710Z,32.45
2024-03-13T22:56:01.620Z,32.13
2024-03-13T22:58:04.798Z,34.97
2024-03-13T23:00:21.612Z,33.80
2024-03-13T23:02:24.536Z,34.65
2024-03-13T23:04:27.436Z,35.30
2024-03-13T23:06:30.624Z,37.65
2024-03-13T23:08:36.477Z,34.30
2024-03-13T23:10:39.482Z,29.85
2024-03-13T23:12:43.158Z,29.88
2024-03-13T23:14:46.439Z,33.88
2024-03-13T23:16:49.276Z,34.72
2024-03-13T23:18:53.241Z,34.42
2024-03-13T23:20:56.558Z,40.20
2024-03-13T23:22:59.456Z,36.20
2024-03-13T23:25:02.629Z,33.38
2024-03-13T23:27:08.393Z,35.88
2024-03-13T23:29:12.374Z,39.38
2024-03-13T23:31:16.690Z,40.72
2024-03-13T23:33:21.078Z,37.20
2024-03-13T23:35:24.206Z,36.70
2024-03-13T23:37:27.000Z,37.78
2024-03-13T23:39:30.115Z,40.78
2024-03-13T23:41:33.117Z,44.25
2024-03-13T23:43:36.026Z,41.28
2024-03-13T23:45:38.905Z,48.58
2024-03-13T23:47:42.219Z,42.33
2024-03-13T23:49:45.155Z,35.35
2024-03-13T23:51:48.063Z,37.22
2024-03-13T23:53:51.568Z,37.03
2024-03-13T23:55:55.096Z,38.15
2024-03-13T23:57:57.952Z,48.85
